createdAt,value
2018-06-05T00:02:21.927Z,19.40
2018-06-05T00:04:50.264Z,19.30
2018-06-05T00:07:18.680Z,19.40
2018-06-05T00:09:46.987Z,19.30
2018-06-05T00:12:15.329Z,19.30
2018-06-05T00:14:43.715Z,19.30
2018-06-05T00:17:12.137Z,19.30
2018-06-05T00:19:40.433Z,19.20
2018-06-05T00:22:08.776Z,19.20
2018-06-05T00:24:37.140Z,19.20
2018-06-05T00:27:05.434Z,19.20
2018-06-05T00:29:33.758Z,19.20
2018-06-05T00:32:02.111Z,19.10
2018-06-05T00:34:30.452Z,19.10
2018-06-05T00:36:58.774Z,19.00
2018-06-05T00:39:27.137Z,19.00
2018-06-05T00:41:55.455Z,19.00
2018-06-05T00:44:23.846Z,18.90
2018-06-05T00:46:52.171Z,18.90
2018-06-05T00:49:20.550Z,18.90
2018-06-05T00:52:00.207Z,19.00
2018-06-05T00:54:28.627Z,18.90
2018-06-05T00:56:56.981Z,18.90
2018-06-05T00:59:25.319Z,18.90
2018-06-05T01:01:53.685Z,18.80
2018-06-05T01:04:22.375Z,18.70
2018-06-05T01:06:50.719Z,18.60
2018-06-05T01:09:19.046Z,18.70
2018-06-05T01:11:47.479Z,18.70
2018-06-05T01:14:15.787Z,18.60
2018-06-05T01:16:44.168Z,18.50
2018-06-05T01:19:12.513Z,18.50
2018-06-05T01:21:40.930Z,18.40
2018-06-05T01:24:09.274Z,18.40
2018-06-05T01:26:37.610Z,18.30
2018-06-05T01:29:05.900Z,18.30
2018-06-05T01:34:02.406Z,18.20
2018-06-05T01:36:30.742Z,18.10
2018-06-05T01:38:59.138Z,18.10
2018-06-05T01:41:27.443Z,18.00
2018-06-05T01:43:55.806Z,18.00
2018-06-05T01:46:24.172Z,18.00
2018-06-05T01:48:52.544Z,17.90
2018-06-05T01:51:20.863Z,17.90
2018-06-05T01:53:49.216Z,17.80
2018-06-05T01:56:17.583Z,17.80
2018-06-05T01:58:45.966Z,17.70
2018-06-05T02:01:14.290Z,17.70
2018-06-05T02:03:42.673Z,17.60
2018-06-05T02:06:11.005Z,17.50
2018-06-05T02:08:39.354Z,17.50
2018-06-05T02:11:07.754Z,17.50
2018-06-05T02:13:36.084Z,17.60
2018-06-05T02:16:04.420Z,17.50
2018-06-05T02:18:32.806Z,17.40
2018-06-05T02:21:01.114Z,17.30
2018-06-05T02:23:29.430Z,17.20
2018-06-05T02:25:57.772Z,17.10
2018-06-05T02:28:26.104Z,17.00
2018-06-05T02:30:54.472Z,17.00
2018-06-05T02:33:22.826Z,16.90
2018-06-05T02:35:51.216Z,16.90
2018-06-05T02:38:19.560Z,16.80
2018-06-05T02:40:48.993Z,16.80
2018-06-05T02:43:17.330Z,16.80
2018-06-05T02:45:45.698Z,16.70
2018-06-05T02:48:14.071Z,16.70
2018-06-05T02:50:42.433Z,16.50
2018-06-05T02:53:10.788Z,16.40
2018-06-05T02:55:39.168Z,16.40
2018-06-05T02:58:07.525Z,16.30
2018-06-05T03:00:35.934Z,16.30
2018-06-05T03:03:04.258Z,16.20
2018-06-05T03:05:32.563Z,16.20
2018-06-05T03:08:00.919Z,16.20
2018-06-05T03:10:29.261Z,16.30
2018-06-05T03:12:57.752Z,16.20
2018-06-05T03:15:26.047Z,16.10
2018-06-05T03:17:54.391Z,16.10
2018-06-05T03:20:22.767Z,16.00
2018-06-05T03:22:51.207Z,16.00
2018-06-05T03:25:19.533Z,15.90
2018-06-05T03:27:47.905Z,15.90
2018-06-05T03:30:16.244Z,15.90
2018-06-05T03:32:44.647Z,15.90
2018-06-05T03:35:12.971Z,15.90
2018-06-05T03:37:41.377Z,15.90
2018-06-05T03:40:09.709Z,16.00
2018-06-05T03:42:38.033Z,16.00
2018-06-05T03:45:06.475Z,16.10
2018-06-05T03:47:34.809Z,16.10
2018-06-05T03:50:03.198Z,16.20
2018-06-05T03:52:31.472Z,16.20
2018-06-05T03:55:01.136Z,16.30
2018-06-05T03:57:35.077Z,16.30
2018-06-05T04:00:03.598Z,16.30
2018-06-05T04:02:31.932Z,16.30
2018-06-05T04:05:01.143Z,16.30
2018-06-05T04:07:29.572Z,16.30
2018-06-05T04:09:57.902Z,16.30
2018-06-05T04:12:26.300Z,16.30
2018-06-05T04:14:54.628Z,16.30
2018-06-05T04:17:23.029Z,16.30
2018-06-05T04:19:51.411Z,16.30
2018-06-05T04:24:47.915Z,16.30
2018-06-05T04:27:16.319Z,16.30
2018-06-05T04:29:45.649Z,16.30
2018-06-05T04:32:14.023Z,16.40
2018-06-05T04:37:10.467Z,16.40
2018-06-05T04:39:38.812Z,16.50
2018-06-05T04:42:07.190Z,16.50
2018-06-05T04:44:35.556Z,16.50
2018-06-05T04:47:03.917Z,16.60
2018-06-05T04:49:32.260Z,16.60
2018-06-05T04:52:00.649Z,16.60
2018-06-05T04:54:28.989Z,16.70
2018-06-05T04:56:57.386Z,16.70
2018-06-05T04:59:25.755Z,16.80
2018-06-05T05:01:54.199Z,16.90
2018-06-05T05:04:22.549Z,16.90
2018-06-05T05:06:50.917Z,17.00
2018-06-05T05:09:20.478Z,17.10
2018-06-05T05:11:49.186Z,17.20
2018-06-05T05:14:17.549Z,17.30
2018-06-05T05:16:45.960Z,17.50
2018-06-05T05:19:14.338Z,17.60
2018-06-05T05:21:42.742Z,17.60
2018-06-05T05:24:11.159Z,17.70
2018-06-05T05:26:39.569Z,17.90
2018-06-05T05:29:07.958Z,18.00
2018-06-05T05:34:04.521Z,18.30
2018-06-05T05:36:33.587Z,18.40
2018-06-05T05:39:01.976Z,18.60
2018-06-05T05:41:30.518Z,18.70
2018-06-05T05:43:58.975Z,18.80
2018-06-05T05:46:27.384Z,19.00
2018-06-05T05:48:55.803Z,19.10
2018-06-05T05:51:24.111Z,19.30
2018-06-05T05:53:53.340Z,19.40
2018-06-05T05:56:21.671Z,19.60
2018-06-05T06:01:18.256Z,19.90
2018-06-05T06:03:46.874Z,20.00
2018-06-05T06:06:15.264Z,20.10
2018-06-05T06:08:43.831Z,20.30
2018-06-05T06:11:12.301Z,20.30
2018-06-05T06:13:40.669Z,20.50
2018-06-05T06:16:09.045Z,20.60
2018-06-05T06:18:37.431Z,20.70
2018-06-05T06:21:05.916Z,20.90
2018-06-05T06:23:34.347Z,21.00
2018-06-05T06:26:03.048Z,21.10
2018-06-05T06:30:59.714Z,21.40
2018-06-05T06:33:28.136Z,21.50
2018-06-05T06:35:56.548Z,21.60
2018-06-05T06:38:24.925Z,21.80
2018-06-05T06:43:21.607Z,22.10
2018-06-05T06:45:49.995Z,22.30
2018-06-05T06:48:18.550Z,22.40
2018-06-05T06:50:46.914Z,22.60
2018-06-05T06:53:15.355Z,22.70
2018-06-05T06:55:43.690Z,22.80
2018-06-05T06:58:12.160Z,23.00
2018-06-05T07:00:40.790Z,23.30
2018-06-05T07:03:09.299Z,23.50
2018-06-05T07:05:37.672Z,24.10
2018-06-05T07:08:06.290Z,24.40
2018-06-05T07:10:34.750Z,24.80
2018-06-05T07:13:03.247Z,25.40
2018-06-05T07:15:31.576Z,25.90
2018-06-05T07:18:00.188Z,26.60
2018-06-05T07:20:28.540Z,27.20
2018-06-05T07:22:57.045Z,27.90
2018-06-05T07:25:25.820Z,28.40
2018-06-05T07:27:54.314Z,29.10
2018-06-05T07:30:22.650Z,29.40
2018-06-05T07:32:50.989Z,29.90
2018-06-05T07:35:19.514Z,30.00
2018-06-05T07:37:47.912Z,30.20
2018-06-05T07:40:16.465Z,30.30
2018-06-05T07:42:44.867Z,30.20
2018-06-05T07:45:13.307Z,30.20
2018-06-05T07:47:41.712Z,30.40
2018-06-05T07:50:10.109Z,30.60
2018-06-05T07:52:38.463Z,30.90
2018-06-05T07:55:06.818Z,31.00
2018-06-05T08:00:03.752Z,31.70
2018-06-05T08:02:32.135Z,31.90
2018-06-05T08:05:00.514Z,32.00
2018-06-05T08:07:28.894Z,32.10
2018-06-05T08:09:57.261Z,32.30
2018-06-05T08:12:25.701Z,32.80
2018-06-05T08:14:54.212Z,32.80
2018-06-05T08:17:22.617Z,33.00
2018-06-05T08:22:19.208Z,33.40
2018-06-05T08:24:47.629Z,33.30
2018-06-05T08:27:16.050Z,33.50
2018-06-05T08:29:44.430Z,33.50
2018-06-05T08:32:16.837Z,34.10
2018-06-05T08:34:45.202Z,34.10
2018-06-05T08:37:13.558Z,35.00
2018-06-05T08:39:41.934Z,36.10
2018-06-05T08:42:10.374Z,36.30
2018-06-05T08:44:38.712Z,35.90
2018-06-05T08:47:07.345Z,36.20
2018-06-05T08:49:35.740Z,36.30
2018-06-05T08:52:04.146Z,36.20
2018-06-05T08:54:32.559Z,36.10
2018-06-05T08:57:00.986Z,36.60
2018-06-05T08:59:30.066Z,37.00
2018-06-05T09:01:58.486Z,36.60
2018-06-05T09:04:27.074Z,36.50
2018-06-05T09:06:55.506Z,37.20
2018-06-05T09:09:25.015Z,37.30
2018-06-05T09:11:53.402Z,37.60
2018-06-05T09:14:21.820Z,37.70
2018-06-05T09:16:50.131Z,37.90
2018-06-05T09:19:18.472Z,38.40
2018-06-05T09:21:46.973Z,38.60
2018-06-05T09:24:15.379Z,38.80
2018-06-05T09:26:43.741Z,38.80
2018-06-05T09:29:12.080Z,38.40
2018-06-05T09:31:40.462Z,38.80
2018-06-05T09:34:08.830Z,38.40
2018-06-05T09:36:37.281Z,38.80
2018-06-05T09:39:08.300Z,38.60
2018-06-05T09:41:36.995Z,38.30
2018-06-05T09:44:06.274Z,38.10
2018-06-05T09:46:34.747Z,38.80
2018-06-05T09:49:03.342Z,39.40
2018-06-05T09:51:31.759Z,40.40
2018-06-05T09:54:00.171Z,39.90
2018-06-05T09:56:28.572Z,40.20
2018-06-05T09:58:56.989Z,40.40
2018-06-05T10:01:25.419Z,40.80
2018-06-05T10:03:53.858Z,40.50
2018-06-05T10:06:22.390Z,40.80
2018-06-05T10:08:50.763Z,40.60
2018-06-05T10:11:19.283Z,40.40
2018-06-05T10:13:47.701Z,40.50
2018-06-05T10:16:16.173Z,40.70
2018-06-05T10:18:44.633Z,40.70
2018-06-05T10:21:13.001Z,40.80
2018-06-05T10:23:41.579Z,40.70
2018-06-05T10:26:10.027Z,41.60
2018-06-05T10:28:38.625Z,41.60
2018-06-05T10:31:07.059Z,41.40
2018-06-05T10:33:35.449Z,41.70
2018-06-05T10:36:03.917Z,41.90
2018-06-05T10:38:32.291Z,42.30
2018-06-05T10:41:00.911Z,42.70
2018-06-05T10:43:29.294Z,42.90
2018-06-05T10:45:57.820Z,43.10
2018-06-05T10:48:26.240Z,43.20
2018-06-05T10:50:54.687Z,42.70
2018-06-05T10:53:23.065Z,42.60
2018-06-05T10:55:51.466Z,43.00
2018-06-05T10:58:19.921Z,42.70
2018-06-05T11:00:48.278Z,41.90
2018-06-05T11:03:17.440Z,42.20
2018-06-05T11:05:45.851Z,42.70
2018-06-05T11:08:14.336Z,43.00
2018-06-05T11:10:42.730Z,42.60
2018-06-05T11:13:11.108Z,42.90
2018-06-05T11:15:39.543Z,43.30
2018-06-05T11:18:07.981Z,43.50
2018-06-05T11:20:36.550Z,44.00
2018-06-05T11:23:04.990Z,44.70
2018-06-05T11:25:33.437Z,45.10
2018-06-05T11:28:01.814Z,44.40
2018-06-05T11:30:30.183Z,44.30
2018-06-05T11:32:58.670Z,44.50
2018-06-05T11:35:27.150Z,44.50
2018-06-05T11:37:55.816Z,44.50
2018-06-05T11:40:24.247Z,44.70
2018-06-05T11:42:52.852Z,44.50
2018-06-05T11:45:21.240Z,45.50
2018-06-05T11:47:49.630Z,46.20
2018-06-05T11:50:17.981Z,45.40
2018-06-05T11:52:46.339Z,45.10
2018-06-05T11:55:14.802Z,45.10
2018-06-05T12:00:11.772Z,44.90
2018-06-05T12:02:40.235Z,45.70
2018-06-05T12:05:08.718Z,45.70
2018-06-05T12:07:37.158Z,45.50
2018-06-05T12:10:05.557Z,44.60
2018-06-05T12:12:33.963Z,44.30
2018-06-05T12:15:02.417Z,44.10
2018-06-05T12:17:30.863Z,44.10
2018-06-05T12:19:59.315Z,43.80
2018-06-05T12:22:27.727Z,44.00
2018-06-05T12:24:56.114Z,44.30
2018-06-05T12:27:24.519Z,44.80
2018-06-05T12:29:52.943Z,45.10
2018-06-05T12:32:21.396Z,44.90
2018-06-05T12:34:50.033Z,44.50
2018-06-05T12:37:18.421Z,44.20
2018-06-05T12:39:46.943Z,43.00
2018-06-05T12:44:43.368Z,43.20
2018-06-05T12:47:11.770Z,43.70
2018-06-05T12:49:40.145Z,43.70
2018-06-05T12:52:08.732Z,44.00
2018-06-05T12:54:37.158Z,44.80
2018-06-05T12:57:06.042Z,45.30
2018-06-05T12:59:34.406Z,44.90
2018-06-05T13:02:02.820Z,45.80
2018-06-05T13:04:31.252Z,46.80
2018-06-05T13:06:59.817Z,46.30
2018-06-05T13:09:28.283Z,46.70
2018-06-05T13:11:56.811Z,47.10
2018-06-05T13:14:25.429Z,47.60
2018-06-05T13:16:53.856Z,47.30
2018-06-05T13:19:22.221Z,47.10
2018-06-05T13:21:50.660Z,46.90
2018-06-05T13:24:19.208Z,47.10
2018-06-05T13:29:15.743Z,46.00
2018-06-05T13:31:44.304Z,46.30
2018-06-05T13:34:12.688Z,46.30
2018-06-05T13:36:41.106Z,45.80
2018-06-05T13:39:09.590Z,44.80
2018-06-05T13:41:38.071Z,44.50
2018-06-05T13:44:06.548Z,43.70
2018-06-05T13:46:34.902Z,42.80
2018-06-05T13:49:03.530Z,41.80
2018-06-05T13:54:11.682Z,40.20
2018-06-05T13:56:40.186Z,40.00
2018-06-05T13:59:08.661Z,39.60
2018-06-05T14:01:38.027Z,39.30
2018-06-05T14:04:06.456Z,39.10
2018-06-05T14:06:34.913Z,38.50
2018-06-05T14:09:03.528Z,38.30
2018-06-05T14:11:32.150Z,38.30
2018-06-05T14:14:00.714Z,37.70
2018-06-05T14:16:29.461Z,37.30
2018-06-05T14:18:57.971Z,37.00
2018-06-05T14:21:27.386Z,36.80
2018-06-05T14:23:55.795Z,36.30
2018-06-05T14:26:24.234Z,36.20
2018-06-05T14:28:52.745Z,35.90
2018-06-05T14:31:21.263Z,36.00
2018-06-05T14:33:49.637Z,36.00
2018-06-05T14:36:18.028Z,35.90
2018-06-05T14:38:46.789Z,36.00
2018-06-05T14:41:21.527Z,36.00
2018-06-05T14:43:50.016Z,35.80
2018-06-05T14:46:18.546Z,35.90
2018-06-05T14:48:48.157Z,35.80
2018-06-05T14:51:16.570Z,35.60
2018-06-05T14:53:44.947Z,35.20
2018-06-05T14:56:13.366Z,34.90
2018-06-05T14:58:41.756Z,34.70
2018-06-05T15:01:10.414Z,34.70
2018-06-05T15:03:38.880Z,34.60
2018-06-05T15:06:07.338Z,34.50
2018-06-05T15:08:35.854Z,34.30
2018-06-05T15:11:04.254Z,34.30
2018-06-05T15:13:32.726Z,34.20
2018-06-05T15:16:01.065Z,34.10
2018-06-05T15:18:29.706Z,33.90
2018-06-05T15:20:58.078Z,33.80
2018-06-05T15:23:26.702Z,33.60
2018-06-05T15:25:55.080Z,33.40
2018-06-05T15:28:23.508Z,33.10
2018-06-05T15:30:51.868Z,32.90
2018-06-05T15:33:20.269Z,32.90
2018-06-05T15:35:48.826Z,32.80
2018-06-05T15:38:17.326Z,32.90
2018-06-05T15:40:45.912Z,33.00
2018-06-05T15:43:14.697Z,33.00
2018-06-05T15:45:43.581Z,32.70
2018-06-05T15:48:11.981Z,32.70
2018-06-05T15:50:40.395Z,32.80
2018-06-05T15:53:08.834Z,32.80
2018-06-05T15:55:37.230Z,32.80
2018-06-05T15:58:05.809Z,32.70
2018-06-05T16:00:34.138Z,32.60
2018-06-05T16:03:02.605Z,32.40
2018-06-05T16:05:31.076Z,32.30
2018-06-05T16:07:59.398Z,32.10
2018-06-05T16:10:27.889Z,32.00
2018-06-05T16:12:56.261Z,31.80
2018-06-05T16:15:24.941Z,31.60
2018-06-05T16:17:53.325Z,31.40
2018-06-05T16:20:22.856Z,31.40
2018-06-05T16:22:51.650Z,31.30
2018-06-05T16:25:20.127Z,31.30
2018-06-05T16:27:48.777Z,31.20
2018-06-05T16:30:17.177Z,31.20
2018-06-05T16:32:46.041Z,31.00
2018-06-05T16:35:14.407Z,30.90
2018-06-05T16:37:42.949Z,30.60
2018-06-05T16:40:11.363Z,30.50
2018-06-05T16:42:39.881Z,30.40
2018-06-05T16:45:08.257Z,30.30
2018-06-05T16:47:36.644Z,30.10
2018-06-05T16:50:05.437Z,29.90
2018-06-05T16:52:33.898Z,29.90
2018-06-05T16:55:02.301Z,29.90
2018-06-05T16:57:30.666Z,29.90
2018-06-05T16:59:59.338Z,29.90
2018-06-05T17:02:27.788Z,30.00
2018-06-05T17:04:56.184Z,30.00
2018-06-05T17:07:24.552Z,30.00
2018-06-05T17:09:52.918Z,29.90
2018-06-05T17:12:21.364Z,29.90
2018-06-05T17:14:49.782Z,29.70
2018-06-05T17:17:18.388Z,29.60
2018-06-05T17:19:46.822Z,29.40
2018-06-05T17:22:15.202Z,29.40
2018-06-05T17:27:11.789Z,29.20
2018-06-05T17:29:40.156Z,29.20
2018-06-05T17:32:08.500Z,29.20
2018-06-05T17:34:37.097Z,29.10
2018-06-05T17:39:33.785Z,29.00
2018-06-05T17:42:02.183Z,28.90
2018-06-05T17:44:30.565Z,28.80
2018-06-05T17:46:58.967Z,28.70
2018-06-05T17:49:27.327Z,28.60
2018-06-05T17:51:55.927Z,28.50
2018-06-05T17:54:24.324Z,28.50
2018-06-05T17:56:52.791Z,28.40
2018-06-05T17:59:21.226Z,28.30
2018-06-05T18:01:49.671Z,28.30
2018-06-05T18:06:46.269Z,28.10
2018-06-05T18:09:15.423Z,28.00
2018-06-05T18:11:43.945Z,27.80
2018-06-05T18:14:12.422Z,27.70
2018-06-05T18:16:40.985Z,27.70
2018-06-05T18:19:10.056Z,27.50
2018-06-05T18:21:38.583Z,27.40
2018-06-05T18:24:07.101Z,27.40
2018-06-05T18:26:35.572Z,27.30
2018-06-05T18:29:03.938Z,27.30
2018-06-05T18:31:32.372Z,27.20
2018-06-05T18:34:00.754Z,27.10
2018-06-05T18:36:29.178Z,27.00
2018-06-05T18:38:57.562Z,26.90
2018-06-05T18:41:26.084Z,26.80
2018-06-05T18:46:22.701Z,26.60
2018-06-05T18:48:51.071Z,26.50
2018-06-05T18:51:19.492Z,26.50
2018-06-05T18:53:47.904Z,26.40
2018-06-05T18:56:16.280Z,26.20
2018-06-05T18:58:45.397Z,26.20
2018-06-05T19:01:13.893Z,26.10
2018-06-05T19:03:42.512Z,26.00
2018-06-05T19:06:11.268Z,25.90
2018-06-05T19:08:40.008Z,25.70
2018-06-05T19:11:09.167Z,25.70
2018-06-05T19:13:37.577Z,25.50
2018-06-05T19:16:06.404Z,25.40
2018-06-05T19:18:34.801Z,25.30
2018-06-05T19:21:03.335Z,25.30
2018-06-05T19:23:31.777Z,25.20
2018-06-05T19:26:00.489Z,25.10
2018-06-05T19:28:29.567Z,25.00
2018-06-05T19:33:26.515Z,24.80
2018-06-05T19:35:56.289Z,24.70
2018-06-05T19:38:25.560Z,24.60
2018-06-05T19:40:54.041Z,24.50
2018-06-05T19:43:22.442Z,24.50
2018-06-05T19:45:50.931Z,24.40
2018-06-05T19:48:19.592Z,24.20
2018-06-05T19:50:48.018Z,24.10
2018-06-05T19:53:16.645Z,24.00
2018-06-05T19:58:13.177Z,23.80
2018-06-05T20:00:41.687Z,23.70
2018-06-05T20:03:10.137Z,23.70
2018-06-05T20:05:38.822Z,23.60
2018-06-05T20:08:07.205Z,23.50
2018-06-05T20:10:35.723Z,23.40
2018-06-05T20:13:04.268Z,23.40
2018-06-05T20:15:32.617Z,23.30
2018-06-05T20:18:01.026Z,23.20
2018-06-05T20:20:29.408Z,23.10
2018-06-05T20:22:57.930Z,23.00
2018-06-05T20:25:26.368Z,23.00
2018-06-05T20:27:54.760Z,22.90
2018-06-05T20:32:51.274Z,22.80
2018-06-05T20:35:19.726Z,22.70
2018-06-05T20:37:48.150Z,22.70
2018-06-05T20:40:16.596Z,22.60
2018-06-05T20:42:45.391Z,22.50
2018-06-05T20:45:13.897Z,22.50
2018-06-05T20:47:42.368Z,22.40
2018-06-05T20:50:12.280Z,22.40
2018-06-05T20:52:40.652Z,22.30
2018-06-05T20:55:09.082Z,22.20
2018-06-05T21:00:05.833Z,22.10
2018-06-05T21:02:34.226Z,22.00
2018-06-05T21:05:02.707Z,22.00
2018-06-05T21:10:00.132Z,22.00
2018-06-05T21:12:28.599Z,22.00
2018-06-05T21:14:57.104Z,21.90
2018-06-05T21:17:25.495Z,21.90
2018-06-05T21:19:53.880Z,21.90
2018-06-05T21:22:22.326Z,21.80
2018-06-05T21:24:51.638Z,21.80
2018-06-05T21:27:20.078Z,21.70
2018-06-05T21:29:48.556Z,21.70
2018-06-05T21:32:16.943Z,21.60
2018-06-05T21:34:45.423Z,21.60
2018-06-05T21:37:13.844Z,21.50
2018-06-05T21:39:42.204Z,21.50
2018-06-05T21:42:10.663Z,21.40
2018-06-05T21:44:39.026Z,21.40
2018-06-05T21:47:07.429Z,21.40
2018-06-05T21:49:35.809Z,21.30
2018-06-05T21:52:04.239Z,21.30
2018-06-05T21:54:32.647Z,21.20
2018-06-05T21:57:01.080Z,21.10
2018-06-05T21:59:29.497Z,21.10
2018-06-05T22:01:57.886Z,21.10
2018-06-05T22:04:26.266Z,21.00
2018-06-05T22:06:54.651Z,20.90
2018-06-05T22:09:23.015Z,20.90
2018-06-05T22:11:51.410Z,20.90
2018-06-05T22:14:19.850Z,20.80
2018-06-05T22:16:48.208Z,20.80
2018-06-05T22:19:16.629Z,20.70
2018-06-05T22:21:44.996Z,20.70
2018-06-05T22:24:13.378Z,20.60
2018-06-05T22:26:43.030Z,20.60
2018-06-05T22:29:11.411Z,20.60
2018-06-05T22:31:39.883Z,20.50
2018-06-05T22:34:08.268Z,20.50
2018-06-05T22:36:36.627Z,20.50
2018-06-05T22:39:06.759Z,20.40
2018-06-05T22:41:35.148Z,20.40
2018-06-05T22:44:03.591Z,20.30
2018-06-05T22:46:31.965Z,20.20
2018-06-05T22:49:00.335Z,20.20
2018-06-05T22:53:56.796Z,20.10
2018-06-05T22:58:53.915Z,20.00
2018-06-05T23:01:22.286Z,19.90
2018-06-05T23:03:50.666Z,19.80
2018-06-05T23:06:19.067Z,19.80
2018-06-05T23:08:47.417Z,19.80
2018-06-05T23:11:15.846Z,19.70
2018-06-05T23:13:44.235Z,19.60
2018-06-05T23:16:12.723Z,19.60
2018-06-05T23:18:41.086Z,19.50
2018-06-05T23:21:09.451Z,19.50
2018-06-05T23:23:37.842Z,19.40
2018-06-05T23:26:06.264Z,19.40
2018-06-05T23:28:34.997Z,19.40
2018-06-05T23:31:03.391Z,19.40
2018-06-05T23:33:31.764Z,19.40
2018-06-05T23:36:00.150Z,19.40
2018-06-05T23:38:28.527Z,19.40
2018-06-05T23:40:56.927Z,19.30
2018-06-05T23:43:25.311Z,19.20
2018-06-05T23:45:53.708Z,19.20
2018-06-05T23:48:22.076Z,19.10
2018-06-05T23:50:50.451Z,19.10
2018-06-05T23:53:18.864Z,19.10
2018-06-05T23:55:47.265Z,19.00
2018-06-05T23:58:15.746Z,18.90
